Time;durP1;ratioP1;P1;durP2;ratioP2;P2;SDS_P1;SDS_P2;PMS_P1;PMS_P2;Temp;Humidity;BMP_temperature;BMP_pressure;BME280_temperature;BME280_humidity;BME280_pressure;Samples;Min_cycle;Max_cycle;Signal;HPM_P1;HPM_P2
2021/10/30 00:00:17;;;;;;;6.10;5.40;;;15.60;99.90;;;;;;2076984;28;20033;-68
2021/10/30 00:01:17;;;;;;;8.23;4.95;;;15.60;99.90;;;;;;2079524;28;20021;-68
2021/10/30 00:02:18;;;;;;;6.22;4.43;;;15.60;99.90;;;;;;2080052;28;20049;-68
2021/10/30 00:03:19;;;;;;;5.97;4.93;;;15.60;99.90;;;;;;2075564;28;20018;-68
2021/10/30 00:04:19;;;;;;;5.47;4.97;;;15.60;99.90;;;;;;2072319;28;20605;-68
2021/10/30 00:05:20;;;;;;;5.30;4.53;;;15.60;99.90;;;;;;2076085;28;20421;-68
2021/10/30 00:06:20;;;;;;;6.13;5.25;;;15.60;99.90;;;;;;2072553;28;20111;-68
2021/10/30 00:07:21;;;;;;;6.30;4.85;;;15.60;99.90;;;;;;2072384;28;20367;-68
2021/10/30 00:08:21;;;;;;;7.30;5.32;;;15.60;99.90;;;;;;2072252;28;20995;-68
2021/10/30 00:09:22;;;;;;;7.65;5.32;;;15.60;99.90;;;;;;2072454;28;20420;-68
2021/10/30 00:10:23;;;;;;;6.05;5.45;;;15.60;99.90;;;;;;2076953;28;20018;-68
2021/10/30 00:11:24;;;;;;;7.28;5.05;;;15.50;99.90;;;;;;2079089;28;20022;-68
2021/10/30 00:12:24;;;;;;;7.18;5.15;;;15.50;99.90;;;;;;2080655;28;20032;-68
2021/10/30 00:13:25;;;;;;;8.05;5.05;;;15.50;99.90;;;;;;2080456;28;20057;-68
2021/10/30 00:14:26;;;;;;;5.68;5.03;;;15.50;99.90;;;;;;2074192;28;20080;-68
2021/10/30 00:15:27;;;;;;;7.88;5.13;;;15.50;99.90;;;;;;2071959;28;20061;-68
2021/10/30 00:16:27;;;;;;;9.35;5.60;;;15.50;99.90;;;;;;2079626;28;20028;-68
2021/10/30 00:17:28;;;;;;;7.72;4.97;;;15.50;99.90;;;;;;2080504;28;20095;-68
2021/10/30 00:18:29;;;;;;;7.25;5.05;;;15.50;99.90;;;;;;2079240;28;20657;-68
2021/10/30 00:19:30;;;;;;;5.50;5.00;;;15.50;99.90;;;;;;2080566;28;20026;-68
2021/10/30 00:20:30;;;;;;;7.82;5.70;;;15.40;99.90;;;;;;2080497;28;20457;-68
2021/10/30 00:21:31;;;;;;;7.95;5.45;;;15.40;99.90;;;;;;2080570;28;20039;-68
2021/10/30 00:22:32;;;;;;;6.90;5.32;;;15.40;99.90;;;;;;2073491;28;20022;-68
2021/10/30 00:23:32;;;;;;;8.63;5.25;;;15.40;99.90;;;;;;2072869;28;20037;-68
2021/10/30 00:24:33;;;;;;;8.05;6.10;;;15.40;99.90;;;;;;2078523;28;20030;-68
2021/10/30 00:25:33;;;;;;;6.93;5.78;;;15.40;99.90;;;;;;2072402;28;20053;-68
2021/10/30 00:26:34;;;;;;;5.50;5.00;;;15.40;99.90;;;;;;2078860;28;20035;-68
2021/10/30 00:27:35;;;;;;;6.97;5.40;;;15.40;99.90;;;;;;2079175;28;20458;-68
2021/10/30 00:28:35;;;;;;;6.00;5.40;;;15.40;99.90;;;;;;2077516;28;20022;-68
2021/10/30 00:29:39;;;;;;;7.18;5.53;;;15.40;99.90;;;;;;2080815;28;20366;-68
2021/10/30 00:30:40;;;;;;;8.52;5.95;;;15.30;99.90;;;;;;2080216;28;20056;-69
2021/10/30 00:31:40;;;;;;;8.20;5.60;;;15.30;99.90;;;;;;2078518;28;20053;-68
2021/10/30 00:32:41;;;;;;;7.90;5.45;;;15.30;99.90;;;;;;2072252;28;20026;-68
2021/10/30 00:33:42;;;;;;;8.07;5.55;;;15.30;99.90;;;;;;2077572;28;20037;-68
2021/10/30 00:34:42;;;;;;;6.75;5.75;;;15.30;99.90;;;;;;2080205;28;20017;-68
2021/10/30 00:35:43;;;;;;;7.53;5.72;;;15.40;99.90;;;;;;2071281;28;20037;-68
2021/10/30 00:36:43;;;;;;;6.20;5.60;;;15.40;99.90;;;;;;2071551;28;20363;-68
2021/10/30 00:37:44;;;;;;;6.63;5.03;;;15.40;99.90;;;;;;2072581;28;20055;-68
2021/10/30 00:38:45;;;;;;;7.07;5.35;;;15.40;99.90;;;;;;2074519;28;20026;-68
2021/10/30 00:39:45;;;;;;;7.43;5.88;;;15.40;99.90;;;;;;2072143;28;20034;-68
2021/10/30 00:40:46;;;;;;;8.98;4.88;;;15.40;99.90;;;;;;2079131;28;20034;-68
2021/10/30 00:41:51;;;;;;;6.80;5.43;;;15.40;99.90;;;;;;2079832;28;20037;-68
2021/10/30 00:42:52;;;;;;;5.72;5.15;;;15.30;99.90;;;;;;2080216;28;20024;-68
2021/10/30 00:43:52;;;;;;;7.03;5.30;;;15.30;99.90;;;;;;2079508;28;20057;-68
2021/10/30 00:44:53;;;;;;;9.75;5.72;;;15.30;99.90;;;;;;2072184;28;20030;-68
2021/10/30 00:45:53;;;;;;;7.05;5.38;;;15.30;99.90;;;;;;2077922;28;20094;-68
2021/10/30 00:46:54;;;;;;;6.50;5.60;;;15.30;99.90;;;;;;2071330;28;20049;-68
2021/10/30 00:47:54;;;;;;;10.27;5.15;;;15.40;99.90;;;;;;2075262;28;20033;-68
2021/10/30 00:48:55;;;;;;;10.40;5.90;;;15.30;99.90;;;;;;2072659;28;20037;-68
2021/10/30 00:49:56;;;;;;;10.27;6.00;;;15.30;99.90;;;;;;2079998;28;20014;-68
2021/10/30 00:50:59;;;;;;;8.65;5.57;;;15.30;99.90;;;;;;2079176;28;20841;-68
2021/10/30 00:52:00;;;;;;;10.68;5.60;;;15.30;99.90;;;;;;2082061;28;20388;-68
2021/10/30 00:53:01;;;;;;;6.68;5.60;;;15.30;99.90;;;;;;2081815;28;20094;-68
2021/10/30 00:54:03;;;;;;;6.25;5.65;;;15.30;99.90;;;;;;2080791;28;20113;-68
2021/10/30 00:55:04;;;;;;;9.88;5.35;;;15.30;99.90;;;;;;2072650;28;20566;-68
2021/10/30 00:56:05;;;;;;;7.15;5.22;;;15.30;99.90;;;;;;2076359;28;20113;-68
2021/10/30 00:57:07;;;;;;;6.65;5.38;;;15.30;99.90;;;;;;2071974;28;20018;-68
2021/10/30 00:58:09;;;;;;;5.80;5.00;;;15.30;99.90;;;;;;2076817;28;20025;-68
2021/10/30 00:59:15;;;;;;;5.70;5.05;;;15.30;99.90;;;;;;2073690;28;20466;-68
2021/10/30 01:00:16;;;;;;;7.60;5.68;;;15.30;99.90;;;;;;2078638;28;20029;-68
2021/10/30 01:01:16;;;;;;;6.38;5.50;;;15.30;99.90;;;;;;2079300;28;20029;-68
2021/10/30 01:02:17;;;;;;;8.32;6.07;;;15.30;99.90;;;;;;2079970;28;20017;-68
2021/10/30 01:03:18;;;;;;;5.55;5.03;;;15.20;99.90;;;;;;2071898;28;20417;-68
2021/10/30 01:04:19;;;;;;;7.15;5.63;;;15.30;99.90;;;;;;2079219;28;20122;-68
2021/10/30 01:05:20;;;;;;;8.70;5.55;;;15.30;99.90;;;;;;2079098;28;20021;-68
2021/10/30 01:06:21;;;;;;;6.60;5.20;;;15.20;99.90;;;;;;2080027;28;20029;-68
2021/10/30 01:07:22;;;;;;;7.72;5.50;;;15.20;99.90;;;;;;2075049;28;20045;-68
2021/10/30 01:08:22;;;;;;;5.55;5.00;;;15.20;99.90;;;;;;2079740;28;20057;-68
2021/10/30 01:09:23;;;;;;;9.65;5.38;;;15.30;99.90;;;;;;2074891;28;20022;-68
2021/10/30 01:10:24;;;;;;;7.03;5.32;;;15.20;99.90;;;;;;2073798;28;20109;-68
2021/10/30 01:11:25;;;;;;;7.05;5.20;;;15.30;99.90;;;;;;2075162;28;20037;-68
2021/10/30 01:12:25;;;;;;;5.95;5.32;;;15.30;99.90;;;;;;2076421;28;20473;-68
2021/10/30 01:13:27;;;;;;;7.35;5.05;;;15.30;99.90;;;;;;2080352;28;20521;-68
2021/10/30 01:14:29;;;;;;;8.88;5.38;;;15.30;99.90;;;;;;2079990;28;20101;-68
2021/10/30 01:15:29;;;;;;;7.32;5.95;;;15.20;99.90;;;;;;2077950;28;20017;-68
2021/10/30 01:16:30;;;;;;;6.10;5.20;;;15.20;99.90;;;;;;2079909;28;20103;-68
2021/10/30 01:17:31;;;;;;;8.32;4.75;;;15.20;99.90;;;;;;2078548;28;20040;-68
2021/10/30 01:18:31;;;;;;;7.88;5.03;;;15.20;99.90;;;;;;2078440;28;20100;-68
2021/10/30 01:19:33;;;;;;;5.25;4.63;;;15.20;99.90;;;;;;2071855;28;20026;-68
2021/10/30 01:20:33;;;;;;;5.70;4.78;;;15.20;99.90;;;;;;2071652;28;20018;-68
2021/10/30 01:21:36;;;;;;;6.90;5.25;;;15.20;99.90;;;;;;2073053;28;20056;-67
2021/10/30 01:22:38;;;;;;;7.22;5.45;;;15.20;99.90;;;;;;2072262;28;20425;-68
2021/10/30 01:23:39;;;;;;;6.50;4.88;;;15.20;99.90;;;;;;2073902;28;20021;-68
2021/10/30 01:24:39;;;;;;;8.77;5.10;;;15.20;99.90;;;;;;2079531;28;20053;-68
2021/10/30 01:25:41;;;;;;;7.97;5.70;;;15.20;99.90;;;;;;2074666;28;20029;-68
2021/10/30 01:26:42;;;;;;;7.43;5.03;;;15.20;99.90;;;;;;2078398;28;20037;-68
2021/10/30 01:27:45;;;;;;;5.40;4.88;;;15.20;99.90;;;;;;2079053;28;20026;-68
2021/10/30 01:28:45;;;;;;;9.73;5.10;;;15.20;99.90;;;;;;2073823;28;20034;-68
2021/10/30 01:29:51;;;;;;;11.05;5.25;;;15.10;99.90;;;;;;2079841;28;20053;-68
2021/10/30 01:30:51;;;;;;;6.95;5.00;;;15.20;99.90;;;;;;2072133;28;20034;-68
2021/10/30 01:31:53;;;;;;;5.50;5.00;;;15.10;99.90;;;;;;2071873;28;20553;-68
2021/10/30 01:33:00;;;;;;;8.18;5.13;;;15.10;99.90;;;;;;2071693;28;20041;-68
2021/10/30 01:34:05;;;;;;;6.68;4.80;;;15.10;99.90;;;;;;2076267;28;20040;-68
2021/10/30 01:35:06;;;;;;;7.32;4.57;;;15.10;99.90;;;;;;2075617;28;20041;-68
2021/10/30 01:36:10;;;;;;;7.50;5.28;;;15.10;99.90;;;;;;2071867;28;20030;-68
2021/10/30 01:37:12;;;;;;;7.38;5.35;;;15.10;99.90;;;;;;2073061;28;20034;-68
2021/10/30 01:38:15;;;;;;;9.55;5.13;;;15.10;99.90;;;;;;2071293;28;20033;-68
2021/10/30 01:39:16;;;;;;;8.05;5.22;;;15.10;99.90;;;;;;2071567;28;20112;-68
2021/10/30 01:40:17;;;;;;;7.88;5.07;;;15.00;99.90;;;;;;2076371;28;20021;-68
2021/10/30 01:41:22;;;;;;;9.10;5.05;;;15.00;99.90;;;;;;2076533;28;20759;-68
2021/10/30 01:42:23;;;;;;;5.60;4.85;;;15.00;99.90;;;;;;2078978;28;20124;-68
2021/10/30 01:43:23;;;;;;;6.10;5.03;;;15.10;99.90;;;;;;2080244;28;20029;-68
2021/10/30 01:44:24;;;;;;;5.50;4.97;;;15.00;99.90;;;;;;2079925;28;20029;-68
2021/10/30 01:45:25;;;;;;;6.88;5.18;;;15.00;99.90;;;;;;2080023;28;20086;-68
2021/10/30 01:46:26;;;;;;;7.28;5.45;;;15.00;99.90;;;;;;2074302;28;20028;-68
2021/10/30 01:47:27;;;;;;;6.50;4.78;;;15.00;99.90;;;;;;2071835;28;20036;-68
2021/10/30 01:48:29;;;;;;;5.97;5.30;;;15.00;99.90;;;;;;2071158;28;20022;-68
2021/10/30 01:49:30;;;;;;;8.68;4.90;;;15.00;99.90;;;;;;2071706;28;20050;-68
2021/10/30 01:50:30;;;;;;;5.55;4.40;;;15.00;99.90;;;;;;2071678;28;20034;-68
2021/10/30 01:51:31;;;;;;;7.43;4.97;;;15.00;99.90;;;;;;2077875;28;20113;-68
2021/10/30 01:52:32;;;;;;;7.95;5.32;;;15.00;99.90;;;;;;2079786;28;20029;-68
2021/10/30 01:53:33;;;;;;;6.80;4.82;;;15.00;99.90;;;;;;2078382;28;20034;-68
2021/10/30 01:54:34;;;;;;;7.38;5.38;;;15.00;99.90;;;;;;2071487;28;20021;-68
2021/10/30 01:55:37;;;;;;;7.03;4.75;;;15.00;99.90;;;;;;2071357;28;20022;-68
2021/10/30 01:56:37;;;;;;;5.13;4.65;;;15.00;99.90;;;;;;2073503;28;20017;-68
2021/10/30 01:57:38;;;;;;;9.25;6.03;;;15.00;99.90;;;;;;2077152;28;20017;-68
2021/10/30 01:58:39;;;;;;;5.57;5.00;;;15.00;99.90;;;;;;2077918;28;20029;-68
2021/10/30 01:59:39;;;;;;;6.10;5.50;;;15.00;99.90;;;;;;2077679;28;20501;-68
2021/10/30 02:00:40;;;;;;;7.38;4.97;;;14.90;99.90;;;;;;2079387;28;20425;-68
2021/10/30 02:01:41;;;;;;;7.07;4.93;;;14.90;99.90;;;;;;2080391;28;20014;-68
2021/10/30 02:02:41;;;;;;;11.73;5.78;;;14.90;99.90;;;;;;2078480;28;20018;-68
2021/10/30 02:03:42;;;;;;;6.07;4.93;;;14.90;99.90;;;;;;2080922;28;20029;-68
2021/10/30 02:04:43;;;;;;;7.40;4.88;;;14.90;99.90;;;;;;2074049;28;20025;-68
2021/10/30 02:05:43;;;;;;;9.38;5.13;;;14.90;99.90;;;;;;2075731;28;20025;-68
2021/10/30 02:06:44;;;;;;;6.50;5.32;;;14.80;99.90;;;;;;2080541;28;20124;-68
2021/10/30 02:07:45;;;;;;;5.47;4.65;;;14.80;99.90;;;;;;2078000;28;20302;-68
2021/10/30 02:08:45;;;;;;;6.95;4.93;;;14.80;99.90;;;;;;2080276;28;20071;-68
2021/10/30 02:09:46;;;;;;;5.70;4.95;;;14.80;99.90;;;;;;2080874;28;20118;-68
2021/10/30 02:10:47;;;;;;;6.05;5.10;;;14.70;99.90;;;;;;2081027;28;20053;-68
2021/10/30 02:11:47;;;;;;;6.55;5.28;;;14.70;99.90;;;;;;2073280;28;20017;-68
2021/10/30 02:12:48;;;;;;;6.82;4.80;;;14.70;99.90;;;;;;2079704;28;20037;-68
2021/10/30 02:13:49;;;;;;;16.10;5.20;;;14.70;99.90;;;;;;2080887;28;20365;-68
2021/10/30 02:14:49;;;;;;;7.05;5.50;;;14.70;99.90;;;;;;2081042;28;20049;-68
2021/10/30 02:15:50;;;;;;;7.65;5.10;;;14.70;99.90;;;;;;2078356;28;21424;-68
2021/10/30 02:16:51;;;;;;;7.78;5.00;;;14.60;99.90;;;;;;2079289;28;20029;-68
2021/10/30 02:17:52;;;;;;;8.60;5.32;;;14.70;99.90;;;;;;2072882;28;20080;-68
2021/10/30 02:18:52;;;;;;;8.63;5.38;;;14.70;99.90;;;;;;2075590;28;20021;-68
2021/10/30 02:19:53;;;;;;;5.53;4.90;;;14.70;99.90;;;;;;2080208;28;20096;-68
2021/10/30 02:20:53;;;;;;;5.20;4.32;;;14.70;99.90;;;;;;2079889;28;20033;-68
2021/10/30 02:21:54;;;;;;;6.03;4.82;;;14.60;99.90;;;;;;2080609;28;20022;-68
2021/10/30 02:22:54;;;;;;;6.15;4.85;;;14.70;99.90;;;;;;2081006;28;20021;-68
2021/10/30 02:23:56;;;;;;;6.93;4.85;;;14.60;99.90;;;;;;2079862;28;20037;-68
2021/10/30 02:24:56;;;;;;;7.00;4.88;;;14.60;99.90;;;;;;2081079;28;20025;-68
2021/10/30 02:25:57;;;;;;;10.98;5.22;;;14.60;99.90;;;;;;2079920;28;20026;-68
2021/10/30 02:26:58;;;;;;;5.72;5.10;;;14.60;99.90;;;;;;2079206;28;20386;-68
2021/10/30 02:27:59;;;;;;;8.63;4.75;;;14.60;99.90;;;;;;2080500;28;20030;-68
2021/10/30 02:28:59;;;;;;;6.95;4.65;;;14.60;99.90;;;;;;2072725;28;20057;-68
2021/10/30 02:30:00;;;;;;;6.13;4.07;;;14.60;99.90;;;;;;2080673;28;20059;-68
2021/10/30 02:31:01;;;;;;;5.65;4.95;;;14.60;99.90;;;;;;2080677;28;20453;-68
2021/10/30 02:32:02;;;;;;;6.57;4.32;;;14.60;99.90;;;;;;2078612;28;20045;-68
2021/10/30 02:33:04;;;;;;;5.05;4.38;;;14.60;99.90;;;;;;2080801;28;20031;-68
2021/10/30 02:34:04;;;;;;;6.07;4.82;;;14.60;99.90;;;;;;2073965;28;20037;-68
2021/10/30 02:35:05;;;;;;;6.20;4.43;;;14.60;99.90;;;;;;2072565;28;20058;-68
2021/10/30 02:36:05;;;;;;;9.38;4.82;;;14.60;99.90;;;;;;2072788;28;20037;-68
2021/10/30 02:37:07;;;;;;;8.82;4.70;;;14.60;99.90;;;;;;2072060;28;20478;-68
2021/10/30 02:38:08;;;;;;;4.85;4.32;;;14.60;99.90;;;;;;2078661;28;20040;-68
2021/10/30 02:39:10;;;;;;;4.00;3.65;;;14.60;99.90;;;;;;2080419;28;20037;-68
2021/10/30 02:40:11;;;;;;;6.38;4.50;;;14.60;99.90;;;;;;2075859;28;20080;-68
2021/10/30 02:41:12;;;;;;;4.65;4.20;;;14.50;99.90;;;;;;2074955;28;20724;-68
2021/10/30 02:42:13;;;;;;;6.90;3.78;;;14.50;99.90;;;;;;2079631;28;20037;-68
2021/10/30 02:43:14;;;;;;;5.85;4.05;;;14.50;99.90;;;;;;2080073;28;20053;-68
2021/10/30 02:44:14;;;;;;;4.70;3.90;;;14.50;99.90;;;;;;2080366;28;20036;-68
2021/10/30 02:45:15;;;;;;;5.45;4.38;;;14.50;99.90;;;;;;2079986;28;20437;-68
2021/10/30 02:46:16;;;;;;;5.72;4.43;;;14.50;99.90;;;;;;2075904;28;20077;-68
2021/10/30 02:47:17;;;;;;;6.65;4.00;;;14.50;99.90;;;;;;2077434;28;20632;-68
2021/10/30 02:48:19;;;;;;;4.90;4.40;;;14.50;99.90;;;;;;2079744;28;20504;-68
2021/10/30 02:49:20;;;;;;;5.25;4.18;;;14.50;99.90;;;;;;2077130;28;20556;-68
2021/10/30 02:50:21;;;;;;;6.13;3.72;;;14.50;99.90;;;;;;2079882;28;20554;-68
2021/10/30 02:51:21;;;;;;;11.57;4.93;;;14.50;99.90;;;;;;2080652;28;20029;-68
2021/10/30 02:52:22;;;;;;;5.97;3.70;;;14.50;99.90;;;;;;2080877;28;20060;-68
2021/10/30 02:53:22;;;;;;;8.48;4.30;;;14.50;99.90;;;;;;2073853;28;20492;-68
2021/10/30 02:54:23;;;;;;;4.57;4.03;;;14.50;99.90;;;;;;2077286;28;20034;-68
2021/10/30 02:55:24;;;;;;;4.40;4.00;;;14.50;99.90;;;;;;2072568;28;20026;-68
2021/10/30 02:56:24;;;;;;;5.47;4.13;;;14.50;99.90;;;;;;2077126;28;20017;-68
2021/10/30 02:57:25;;;;;;;6.72;4.60;;;14.50;99.90;;;;;;2080831;28;20021;-68
2021/10/30 02:58:26;;;;;;;5.95;4.05;;;14.50;99.90;;;;;;2072115;28;20026;-68
2021/10/30 02:59:26;;;;;;;6.60;4.40;;;14.50;99.90;;;;;;2078661;28;20052;-68
2021/10/30 03:00:27;;;;;;;6.18;4.38;;;14.50;99.90;;;;;;2080203;28;20457;-68
2021/10/30 03:01:28;;;;;;;6.40;4.40;;;14.50;99.90;;;;;;2080646;28;20032;-68
2021/10/30 03:02:28;;;;;;;7.25;4.10;;;14.50;99.90;;;;;;2077745;28;20014;-68
2021/10/30 03:03:29;;;;;;;5.07;3.85;;;14.50;99.90;;;;;;2072320;28;20026;-68
2021/10/30 03:04:30;;;;;;;5.18;3.65;;;14.50;99.90;;;;;;2078716;28;20465;-68
2021/10/30 03:05:31;;;;;;;5.13;4.00;;;14.60;99.90;;;;;;2076076;28;20021;-68
2021/10/30 03:06:32;;;;;;;5.35;4.35;;;14.50;99.90;;;;;;2071494;28;20053;-68
2021/10/30 03:07:33;;;;;;;7.40;4.20;;;14.50;99.90;;;;;;2071840;28;20026;-68
2021/10/30 03:08:33;;;;;;;6.20;4.07;;;14.50;99.90;;;;;;2073618;28;20062;-68
2021/10/30 03:09:34;;;;;;;6.97;3.85;;;14.60;99.90;;;;;;2081343;28;20032;-68
2021/10/30 03:10:35;;;;;;;8.07;4.47;;;14.60;99.90;;;;;;2079582;28;20105;-68
2021/10/30 03:11:35;;;;;;;4.68;3.95;;;14.60;99.90;;;;;;2074779;28;20100;-68
2021/10/30 03:12:36;;;;;;;5.90;3.70;;;14.60;99.90;;;;;;2075979;28;20017;-68
2021/10/30 03:13:36;;;;;;;4.95;4.18;;;14.60;99.90;;;;;;2079735;28;20021;-68
2021/10/30 03:14:37;;;;;;;5.65;3.97;;;14.60;99.90;;;;;;2080557;28;20033;-68
2021/10/30 03:15:37;;;;;;;7.43;4.05;;;14.60;99.90;;;;;;2080836;28;20477;-68
2021/10/30 03:16:38;;;;;;;6.57;3.75;;;14.60;99.90;;;;;;2080911;28;20029;-68
2021/10/30 03:17:39;;;;;;;4.78;3.75;;;14.60;99.90;;;;;;2074531;28;20029;-68
2021/10/30 03:18:39;;;;;;;4.88;3.65;;;14.60;99.90;;;;;;2074045;28;20060;-68
2021/10/30 03:19:40;;;;;;;6.25;3.70;;;14.60;99.90;;;;;;2080999;28;20028;-68
2021/10/30 03:20:41;;;;;;;4.47;3.67;;;14.60;99.90;;;;;;2075695;28;20018;-68
2021/10/30 03:21:41;;;;;;;4.80;3.58;;;14.60;99.90;;;;;;2074833;28;20462;-68
2021/10/30 03:22:42;;;;;;;7.50;4.10;;;14.70;99.90;;;;;;2072776;28;20021;-69
2021/10/30 03:23:43;;;;;;;6.55;4.53;;;14.60;99.90;;;;;;2076079;28;20727;-68
2021/10/30 03:24:43;;;;;;;4.38;3.80;;;14.70;99.90;;;;;;2080202;28;20021;-68
2021/10/30 03:25:44;;;;;;;5.70;3.72;;;14.60;99.90;;;;;;2074408;28;20083;-69
2021/10/30 03:26:44;;;;;;;8.88;4.07;;;14.60;99.90;;;;;;2078160;28;20029;-68
2021/10/30 03:27:45;;;;;;;6.45;4.07;;;14.70;99.90;;;;;;2080091;28;20125;-68
2021/10/30 03:28:45;;;;;;;6.80;4.03;;;14.60;99.90;;;;;;2077868;28;20041;-68
2021/10/30 03:29:46;;;;;;;4.03;3.63;;;14.70;99.90;;;;;;2079906;28;20033;-68
2021/10/30 03:30:47;;;;;;;5.28;3.67;;;14.60;99.90;;;;;;2080118;28;20037;-68
2021/10/30 03:31:47;;;;;;;7.10;3.53;;;14.60;99.90;;;;;;2077491;28;20064;-68
2021/10/30 03:32:48;;;;;;;6.10;3.90;;;14.60;99.90;;;;;;2073325;28;20072;-68
2021/10/30 03:33:48;;;;;;;4.72;3.58;;;14.70;99.90;;;;;;2073702;28;20508;-68
2021/10/30 03:34:49;;;;;;;4.30;3.90;;;14.70;99.90;;;;;;2077311;28;20556;-68
2021/10/30 03:35:49;;;;;;;4.63;3.45;;;14.60;99.90;;;;;;2079857;28;20386;-68
2021/10/30 03:36:50;;;;;;;3.88;3.47;;;14.60;99.90;;;;;;2076449;28;20581;-68
2021/10/30 03:37:50;;;;;;;6.15;3.70;;;14.70;99.90;;;;;;2072605;28;20025;-68
2021/10/30 03:38:51;;;;;;;5.60;3.63;;;14.60;99.90;;;;;;2074374;28;20025;-68
2021/10/30 03:39:53;;;;;;;6.68;4.40;;;14.70;99.90;;;;;;2080195;28;20021;-68
2021/10/30 03:40:54;;;;;;;3.92;3.63;;;14.70;99.90;;;;;;2080198;28;20025;-68
2021/10/30 03:41:54;;;;;;;5.53;4.07;;;14.60;99.90;;;;;;2080022;28;20056;-68
2021/10/30 03:42:55;;;;;;;9.32;3.75;;;14.70;99.90;;;;;;2080836;28;20026;-68
2021/10/30 03:43:55;;;;;;;5.55;4.28;;;14.70;99.90;;;;;;2080250;28;20036;-68
2021/10/30 03:44:56;;;;;;;4.45;3.58;;;14.60;99.90;;;;;;2074425;28;20056;-68
2021/10/30 03:45:57;;;;;;;6.47;3.85;;;14.70;99.90;;;;;;2073889;28;20030;-68
2021/10/30 03:46:57;;;;;;;4.35;3.95;;;14.70;99.90;;;;;;2072848;28;20439;-68
2021/10/30 03:48:02;;;;;;;6.07;3.58;;;14.70;99.90;;;;;;2072483;28;20152;-68
2021/10/30 03:49:02;;;;;;;5.38;3.85;;;14.70;99.90;;;;;;2076830;28;20570;-68
2021/10/30 03:50:03;;;;;;;6.13;3.50;;;14.70;99.90;;;;;;2080235;28;20048;-68
2021/10/30 03:51:04;;;;;;;4.38;3.72;;;14.70;99.90;;;;;;2081240;28;20044;-68
2021/10/30 03:52:05;;;;;;;5.93;3.33;;;14.70;99.90;;;;;;2080733;28;20033;-68
2021/10/30 03:53:06;;;;;;;5.13;3.50;;;14.70;99.90;;;;;;2080334;28;20033;-68
2021/10/30 03:54:07;;;;;;;6.63;3.80;;;14.70;99.90;;;;;;2080806;28;20076;-68
2021/10/30 03:55:08;;;;;;;4.93;3.70;;;14.70;99.90;;;;;;2073112;28;20135;-68
2021/10/30 03:56:09;;;;;;;4.07;3.58;;;14.70;99.90;;;;;;2073968;28;20064;-68
2021/10/30 03:57:09;;;;;;;3.65;3.35;;;14.70;99.90;;;;;;2072647;28;20470;-68
2021/10/30 03:58:10;;;;;;;5.03;3.65;;;14.70;99.90;;;;;;2071965;28;20029;-68
2021/10/30 03:59:11;;;;;;;4.57;3.53;;;14.70;99.90;;;;;;2077391;28;20034;-68
2021/10/30 04:00:12;;;;;;;5.90;4.38;;;14.70;99.90;;;;;;2079872;28;20026;-68
2021/10/30 04:01:12;;;;;;;11.30;4.40;;;14.80;99.90;;;;;;2079788;28;20065;-68
2021/10/30 04:02:13;;;;;;;5.40;3.83;;;14.80;99.90;;;;;;2080395;28;20025;-68
2021/10/30 04:03:14;;;;;;;5.55;3.65;;;14.80;99.90;;;;;;2073002;28;20525;-68
2021/10/30 04:04:14;;;;;;;6.63;4.30;;;14.80;99.90;;;;;;2078132;28;20029;-68
2021/10/30 04:05:15;;;;;;;8.80;3.88;;;14.80;99.90;;;;;;2080734;28;20072;-68
2021/10/30 04:06:16;;;;;;;5.38;3.80;;;14.80;99.90;;;;;;2080697;28;20064;-68
2021/10/30 04:07:17;;;;;;;4.63;3.95;;;14.80;99.90;;;;;;2079787;28;20025;-68
2021/10/30 04:08:19;;;;;;;5.93;3.70;;;14.80;99.90;;;;;;2071855;28;20037;-68
2021/10/30 04:09:21;;;;;;;5.03;3.30;;;14.80;99.90;;;;;;2079508;28;20029;-68
2021/10/30 04:10:22;;;;;;;5.30;3.88;;;14.80;99.90;;;;;;2080672;28;20025;-69
2021/10/30 04:11:23;;;;;;;6.25;3.95;;;14.80;99.90;;;;;;2078636;28;20029;-68
2021/10/30 04:12:24;;;;;;;5.78;3.90;;;14.80;99.90;;;;;;2074072;28;20034;-68
2021/10/30 04:13:24;;;;;;;3.75;3.42;;;14.80;99.90;;;;;;2072593;28;20096;-68
2021/10/30 04:14:25;;;;;;;5.65;4.25;;;14.80;99.90;;;;;;2073177;28;20106;-68
2021/10/30 04:15:25;;;;;;;5.38;3.97;;;14.80;99.90;;;;;;2080408;28;20040;-68
2021/10/30 04:16:26;;;;;;;4.90;3.25;;;14.80;99.90;;;;;;2080501;28;20029;-68
2021/10/30 04:17:26;;;;;;;8.50;4.07;;;14.80;99.90;;;;;;2075487;28;20022;-68
2021/10/30 04:18:27;;;;;;;4.25;3.70;;;14.80;99.90;;;;;;2071856;28;20037;-68
2021/10/30 04:19:28;;;;;;;4.53;3.63;;;14.80;99.90;;;;;;2080264;28;20393;-68
2021/10/30 04:20:28;;;;;;;5.28;3.85;;;14.80;99.90;;;;;;2077506;28;20026;-68
2021/10/30 04:21:29;;;;;;;5.47;4.22;;;14.90;99.90;;;;;;2072297;28;20489;-68
2021/10/30 04:22:29;;;;;;;3.85;3.55;;;14.90;99.90;;;;;;2071501;28;20419;-68
2021/10/30 04:23:30;;;;;;;6.28;4.00;;;14.90;99.90;;;;;;2072144;28;20025;-68
2021/10/30 04:24:31;;;;;;;5.43;3.70;;;14.90;99.90;;;;;;2078350;28;20021;-68
2021/10/30 04:25:31;;;;;;;5.28;3.67;;;14.90;99.90;;;;;;2071677;28;20037;-68
2021/10/30 04:26:33;;;;;;;5.43;3.97;;;14.90;99.90;;;;;;2077911;28;20025;-68
2021/10/30 04:27:34;;;;;;;4.32;3.92;;;14.90;99.90;;;;;;2077878;28;20446;-68
2021/10/30 04:28:35;;;;;;;5.72;3.65;;;14.90;99.90;;;;;;2079398;28;20327;-68
2021/10/30 04:29:35;;;;;;;4.57;3.95;;;14.90;99.90;;;;;;2079882;28;20412;-68
2021/10/30 04:30:36;;;;;;;4.22;3.83;;;14.90;99.90;;;;;;2073814;28;20566;-68
2021/10/30 04:31:37;;;;;;;6.13;3.80;;;14.90;99.90;;;;;;2077614;28;20029;-68
2021/10/30 04:32:38;;;;;;;7.10;3.53;;;15.00;99.90;;;;;;2079526;28;20505;-68
2021/10/30 04:33:43;;;;;;;4.90;4.15;;;15.00;99.90;;;;;;2076601;28;20026;-68
2021/10/30 04:34:45;;;;;;;5.88;4.05;;;15.00;99.90;;;;;;2077299;28;20033;-68
2021/10/30 04:35:47;;;;;;;4.97;3.80;;;15.00;99.90;;;;;;2071980;28;20830;-68
2021/10/30 04:36:48;;;;;;;4.25;3.83;;;15.00;99.90;;;;;;2073132;28;20018;-68
2021/10/30 04:37:49;;;;;;;4.93;3.75;;;15.00;99.90;;;;;;2079682;28;20059;-68
2021/10/30 04:38:51;;;;;;;4.50;4.03;;;15.00;99.90;;;;;;2074931;28;20056;-68
2021/10/30 04:39:53;;;;;;;9.75;3.80;;;15.00;99.90;;;;;;2077957;28;20092;-68
2021/10/30 04:40:54;;;;;;;4.28;3.45;;;15.00;99.90;;;;;;2079945;28;20021;-68
2021/10/30 04:41:55;;;;;;;3.95;3.53;;;15.00;99.90;;;;;;2079853;28;20042;-68
2021/10/30 04:42:55;;;;;;;4.53;3.65;;;15.00;99.90;;;;;;2080379;28;20490;-68
2021/10/30 04:43:56;;;;;;;4.97;3.65;;;15.00;99.90;;;;;;2079668;28;20064;-68
2021/10/30 04:44:57;;;;;;;6.85;3.75;;;15.00;99.90;;;;;;2076976;28;20040;-68
2021/10/30 04:45:57;;;;;;;4.40;3.40;;;15.00;99.90;;;;;;2080283;28;20409;-68
2021/10/30 04:46:58;;;;;;;6.05;3.92;;;15.00;99.90;;;;;;2080279;28;20037;-68
2021/10/30 04:47:58;;;;;;;9.35;4.50;;;15.00;99.90;;;;;;2077228;28;20054;-68
2021/10/30 04:48:59;;;;;;;6.10;4.18;;;15.00;99.90;;;;;;2076118;28;20048;-68
2021/10/30 04:50:00;;;;;;;6.13;4.35;;;15.00;99.90;;;;;;2080411;28;20025;-68
2021/10/30 04:51:01;;;;;;;5.32;4.28;;;15.00;99.90;;;;;;2079783;28;20059;-68
2021/10/30 04:52:02;;;;;;;5.22;4.10;;;15.00;99.90;;;;;;2080338;28;20064;-68
2021/10/30 04:53:03;;;;;;;7.13;3.95;;;15.00;99.90;;;;;;2075958;28;20061;-68
2021/10/30 04:54:03;;;;;;;5.78;4.00;;;15.00;99.90;;;;;;2077200;28;20033;-68
2021/10/30 04:55:05;;;;;;;4.28;3.88;;;15.00;99.90;;;;;;2079699;28;20115;-68
2021/10/30 04:56:07;;;;;;;5.72;3.80;;;15.00;99.90;;;;;;2077131;28;20127;-68
2021/10/30 04:57:08;;;;;;;7.32;4.10;;;15.00;99.90;;;;;;2072044;28;20417;-68
2021/10/30 04:58:08;;;;;;;5.65;4.20;;;15.00;99.90;;;;;;2071753;28;20055;-68
2021/10/30 04:59:09;;;;;;;6.68;4.45;;;15.00;99.90;;;;;;2076451;28;20061;-69
2021/10/30 05:00:10;;;;;;;5.63;4.00;;;15.00;99.90;;;;;;2079595;28;20469;-68
2021/10/30 05:01:12;;;;;;;7.43;4.15;;;15.00;99.90;;;;;;2078777;28;20021;-68
2021/10/30 05:02:13;;;;;;;6.38;4.22;;;15.00;99.90;;;;;;2080164;28;20021;-68
2021/10/30 05:03:13;;;;;;;6.75;4.38;;;15.00;99.90;;;;;;2072318;28;20109;-68
2021/10/30 05:04:14;;;;;;;5.78;4.00;;;15.00;99.90;;;;;;2078297;28;20038;-68
2021/10/30 05:05:15;;;;;;;7.50;4.68;;;14.90;99.90;;;;;;2079904;28;20537;-68
2021/10/30 05:06:15;;;;;;;4.40;4.00;;;14.90;99.90;;;;;;2073998;28;20088;-68
2021/10/30 05:07:16;;;;;;;5.38;4.35;;;14.90;99.90;;;;;;2071780;28;20038;-68
2021/10/30 05:08:17;;;;;;;4.93;4.18;;;14.90;99.90;;;;;;2071865;28;20033;-69
2021/10/30 05:09:18;;;;;;;5.93;4.45;;;14.90;99.90;;;;;;2078183;28;20037;-68
2021/10/30 05:10:18;;;;;;;5.40;4.10;;;14.90;99.90;;;;;;2079721;28;20485;-68
2021/10/30 05:11:19;;;;;;;6.28;3.88;;;14.90;99.90;;;;;;2079479;28;20424;-68
2021/10/30 05:12:19;;;;;;;6.10;4.78;;;14.90;99.90;;;;;;2075944;28;20458;-68
2021/10/30 05:13:20;;;;;;;4.70;4.20;;;14.90;99.90;;;;;;2075483;28;20041;-68
2021/10/30 05:14:20;;;;;;;7.57;4.57;;;14.90;99.90;;;;;;2077752;28;20064;-68
2021/10/30 05:15:21;;;;;;;6.00;4.65;;;14.80;99.90;;;;;;2079595;28;20136;-69
2021/10/30 05:16:21;;;;;;;4.95;4.45;;;14.80;99.90;;;;;;2079041;28;20064;-69